createdAt,value
2022-11-06T00:00:45.549Z,9.57
2022-11-06T00:03:12.956Z,9.61
2022-11-06T00:06:08.328Z,9.67
2022-11-06T00:08:43.208Z,9.72
2022-11-06T00:11:16.386Z,9.56
2022-11-06T00:13:44.391Z,9.56
2022-11-06T00:16:13.661Z,9.66
2022-11-06T00:18:47.226Z,9.69
2022-11-06T00:21:20.785Z,9.83
2022-11-06T00:23:50.044Z,9.78
2022-11-06T00:26:19.619Z,9.84
2022-11-06T00:28:49.474Z,9.75
2022-11-06T00:31:19.922Z,9.85
2022-11-06T00:33:48.256Z,9.73
2022-11-06T00:36:23.244Z,9.71
2022-11-06T00:39:20.802Z,9.80
2022-11-06T00:41:48.433Z,9.80
2022-11-06T00:44:17.921Z,9.76
2022-11-06T00:46:44.779Z,9.75
2022-11-06T00:49:11.849Z,9.70
2022-11-06T00:51:39.541Z,9.74
2022-11-06T00:54:13.496Z,9.72
2022-11-06T00:56:42.381Z,9.78
2022-11-06T00:59:13.327Z,9.59
2022-11-06T01:01:53.293Z,9.62
2022-11-06T01:04:23.243Z,9.61
2022-11-06T01:06:53.966Z,9.61
2022-11-06T01:09:23.258Z,9.59
2022-11-06T01:12:12.811Z,9.76
2022-11-06T01:14:40.920Z,9.78
2022-11-06T01:17:08.101Z,9.93
2022-11-06T01:19:35.249Z,10.04
2022-11-06T01:22:02.039Z,10.11
2022-11-06T01:24:29.740Z,10.11
2022-11-06T01:27:25.864Z,10.16
2022-11-06T01:29:45.039Z,10.24
2022-11-06T01:32:14.906Z,10.29
2022-11-06T01:34:47.082Z,10.16
2022-11-06T01:37:14.927Z,10.21
2022-11-06T01:39:41.955Z,10.26
2022-11-06T01:42:14.755Z,10.32
2022-11-06T01:45:28.362Z,10.38
2022-11-06T01:47:55.978Z,10.47
2022-11-06T01:50:23.011Z,10.30
2022-11-06T01:52:51.454Z,10.36
2022-11-06T01:55:29.546Z,10.44
2022-11-06T01:57:58.000Z,10.29
2022-11-06T02:00:27.234Z,10.38
2022-11-06T02:02:54.425Z,10.30
2022-11-06T02:05:21.408Z,10.27
2022-11-06T02:07:56.762Z,10.34
2022-11-06T02:10:23.904Z,10.33
2022-11-06T02:13:09.381Z,10.30
2022-11-06T02:15:55.496Z,10.42
2022-11-06T02:19:02.166Z,10.43
2022-11-06T02:22:11.046Z,10.21
2022-11-06T02:24:51.577Z,10.20
2022-11-06T02:27:28.094Z,10.24
2022-11-06T02:29:54.895Z,10.34
2022-11-06T02:32:51.185Z,10.16
2022-11-06T02:35:21.041Z,10.25
2022-11-06T02:37:55.205Z,10.08
2022-11-06T02:40:26.177Z,10.21
2022-11-06T02:42:58.905Z,10.09
2022-11-06T02:45:30.207Z,10.12
2022-11-06T02:48:00.552Z,10.17
2022-11-06T02:50:33.929Z,10.16
2022-11-06T02:53:07.842Z,10.11
2022-11-06T02:55:40.333Z,10.06
2022-11-06T02:58:20.495Z,9.87
2022-11-06T03:01:03.642Z,10.01
2022-11-06T03:03:35.247Z,9.93
2022-11-06T03:06:16.757Z,9.79
2022-11-06T03:08:50.315Z,9.89
2022-11-06T03:11:29.936Z,10.07
2022-11-06T03:14:02.337Z,10.13
2022-11-06T03:16:56.018Z,10.28
2022-11-06T03:19:53.706Z,10.36
2022-11-06T03:22:28.261Z,10.46
2022-11-06T03:25:09.037Z,10.44
2022-11-06T03:27:47.765Z,10.42
2022-11-06T03:30:16.813Z,10.60
2022-11-06T03:33:14.935Z,10.69
2022-11-06T03:35:50.866Z,10.77
2022-11-06T03:38:18.627Z,10.77
2022-11-06T03:40:52.546Z,10.62
2022-11-06T03:43:29.318Z,10.64
2022-11-06T03:45:59.570Z,10.63
2022-11-06T03:48:41.401Z,10.75
2022-11-06T03:51:50.327Z,10.64
2022-11-06T03:54:23.687Z,10.75
2022-11-06T03:56:58.063Z,10.64
2022-11-06T03:59:29.562Z,10.64
2022-11-06T04:02:01.089Z,10.67
2022-11-06T04:04:35.392Z,10.51
2022-11-06T04:07:31.448Z,10.45
2022-11-06T04:10:26.743Z,10.33
2022-11-06T04:13:16.560Z,10.23
2022-11-06T04:15:50.891Z,10.24
2022-11-06T04:18:19.601Z,10.11
2022-11-06T04:21:31.071Z,10.07
2022-11-06T04:24:43.645Z,10.18
2022-11-06T04:27:28.560Z,10.17
2022-11-06T04:30:04.714Z,10.01
2022-11-06T04:32:44.031Z,10.06
2022-11-06T04:35:23.300Z,10.04
2022-11-06T04:38:42.663Z,9.95
2022-11-06T04:41:21.807Z,9.78
2022-11-06T04:44:02.401Z,9.77
2022-11-06T04:46:57.898Z,9.65
2022-11-06T04:49:36.976Z,9.71
2022-11-06T04:52:10.406Z,9.66
2022-11-06T04:54:41.548Z,9.75
2022-11-06T04:57:13.594Z,9.62
2022-11-06T04:59:43.153Z,9.63
2022-11-06T05:02:20.243Z,9.65
2022-11-06T05:04:53.847Z,9.71
2022-11-06T05:07:22.736Z,9.92
2022-11-06T05:09:56.177Z,9.85
2022-11-06T05:12:25.751Z,9.82
2022-11-06T05:14:55.716Z,9.83
2022-11-06T05:17:24.033Z,9.89
2022-11-06T05:19:55.017Z,9.81
2022-11-06T05:22:42.975Z,9.93
2022-11-06T05:25:10.037Z,9.84
2022-11-06T05:27:40.162Z,9.90
2022-11-06T05:30:07.949Z,9.88
2022-11-06T05:32:36.626Z,9.78
2022-11-06T05:35:05.460Z,9.69
2022-11-06T05:37:34.949Z,9.76
2022-11-06T05:40:04.053Z,9.83
2022-11-06T05:42:30.865Z,9.82
2022-11-06T05:45:00.937Z,9.98
2022-11-06T05:47:28.459Z,9.91
2022-11-06T05:49:55.324Z,9.97
2022-11-06T05:52:26.767Z,9.91
2022-11-06T05:54:55.002Z,9.98
2022-11-06T05:57:29.553Z,10.05
2022-11-06T05:59:59.215Z,10.06
2022-11-06T06:02:26.210Z,10.07
2022-11-06T06:04:55.611Z,9.99
2022-11-06T06:07:28.287Z,9.89
2022-11-06T06:09:58.609Z,9.90
2022-11-06T06:12:33.288Z,10.04
2022-11-06T06:15:04.274Z,10.05
2022-11-06T06:17:34.240Z,9.87
2022-11-06T06:20:01.669Z,9.94
2022-11-06T06:22:28.690Z,9.91
2022-11-06T06:24:55.622Z,9.95
2022-11-06T06:27:29.649Z,9.89
2022-11-06T06:29:59.970Z,10.10
2022-11-06T06:32:27.033Z,9.94
2022-11-06T06:34:57.529Z,10.18
2022-11-06T06:37:29.213Z,10.18
2022-11-06T06:39:56.609Z,10.20
2022-11-06T06:42:30.184Z,10.37
2022-11-06T06:45:07.026Z,10.41
2022-11-06T06:47:36.217Z,10.47
2022-11-06T06:50:03.269Z,10.38
2022-11-06T06:52:30.239Z,10.43
2022-11-06T06:54:57.632Z,10.43
2022-11-06T06:57:27.868Z,10.37
2022-11-06T06:59:56.296Z,10.43
2022-11-06T07:02:25.385Z,10.31
2022-11-06T07:04:52.199Z,10.59
2022-11-06T07:07:19.350Z,10.47
2022-11-06T07:09:46.667Z,10.48
2022-11-06T07:12:15.527Z,10.67
2022-11-06T07:14:43.222Z,10.60
2022-11-06T07:17:12.764Z,10.61
2022-11-06T07:19:41.460Z,10.64
2022-11-06T07:22:11.363Z,10.77
2022-11-06T07:24:42.823Z,10.81
2022-11-06T07:27:10.121Z,10.86
2022-11-06T07:29:38.983Z,10.93
2022-11-06T07:32:08.791Z,10.91
2022-11-06T07:34:41.569Z,10.98
2022-11-06T07:37:11.219Z,10.94
2022-11-06T07:39:50.512Z,10.92
2022-11-06T07:42:19.487Z,11.07
2022-11-06T07:45:02.178Z,11.05
2022-11-06T07:47:40.615Z,11.13
2022-11-06T07:50:21.445Z,11.23
2022-11-06T07:52:51.427Z,11.24
2022-11-06T07:55:20.578Z,11.39
2022-11-06T07:57:47.499Z,11.37
2022-11-06T08:00:14.890Z,11.48
2022-11-06T08:02:43.833Z,11.52
2022-11-06T08:05:12.199Z,11.50
2022-11-06T08:07:42.297Z,11.48
2022-11-06T08:10:09.785Z,11.50
2022-11-06T08:12:38.843Z,11.46
2022-11-06T08:15:12.238Z,11.46
2022-11-06T08:20:28.567Z,11.72
2022-11-06T08:23:00.256Z,11.78
2022-11-06T08:25:30.816Z,11.89
2022-11-06T08:28:02.987Z,11.94
2022-11-06T08:30:31.853Z,11.94
2022-11-06T08:33:06.409Z,12.09
2022-11-06T08:35:37.600Z,12.03
2022-11-06T08:38:05.244Z,12.05
2022-11-06T08:40:33.080Z,12.04
2022-11-06T08:46:00.001Z,12.14
2022-11-06T08:48:35.527Z,12.15
2022-11-06T08:51:08.440Z,12.19
2022-11-06T08:54:06.826Z,12.28
2022-11-06T08:56:36.138Z,12.31
2022-11-06T08:59:08.375Z,12.33
2022-11-06T09:01:37.325Z,12.46
2022-11-06T09:04:05.085Z,12.43
2022-11-06T09:06:32.171Z,12.35
2022-11-06T09:08:59.554Z,12.42
2022-11-06T09:11:26.403Z,12.40
2022-11-06T09:13:55.346Z,12.33
2022-11-06T09:16:22.456Z,12.45
2022-11-06T09:18:49.589Z,12.56
2022-11-06T09:21:18.494Z,12.53
2022-11-06T09:23:47.284Z,12.74
2022-11-06T09:26:15.354Z,12.97
2022-11-06T09:28:45.575Z,13.15
2022-11-06T09:31:12.923Z,13.33
2022-11-06T09:33:46.974Z,13.47
2022-11-06T09:36:22.431Z,13.55
2022-11-06T09:38:49.661Z,13.64
2022-11-06T09:41:35.050Z,13.79
2022-11-06T09:44:23.923Z,13.70
2022-11-06T09:46:52.289Z,13.59
2022-11-06T09:49:44.540Z,13.65
2022-11-06T09:52:31.496Z,13.43
2022-11-06T09:55:04.646Z,13.57
2022-11-06T09:57:50.148Z,13.77
2022-11-06T10:00:20.740Z,13.82
2022-11-06T10:02:56.082Z,13.85
2022-11-06T10:05:35.369Z,13.95
2022-11-06T10:08:16.091Z,13.80
2022-11-06T10:11:23.079Z,13.97
2022-11-06T10:14:09.424Z,14.14
2022-11-06T10:16:56.214Z,14.19
2022-11-06T10:19:46.166Z,13.88
2022-11-06T10:22:42.124Z,13.90
2022-11-06T10:25:34.047Z,13.69
2022-11-06T10:28:46.221Z,13.77
2022-11-06T10:31:31.181Z,13.78
2022-11-06T10:34:05.557Z,13.63
2022-11-06T10:36:55.639Z,13.63
2022-11-06T10:39:36.294Z,13.62
2022-11-06T10:42:35.140Z,13.68
2022-11-06T10:45:15.697Z,13.73
2022-11-06T10:48:01.204Z,13.69
2022-11-06T10:50:51.490Z,13.93
2022-11-06T10:53:48.378Z,14.21
2022-11-06T10:56:26.550Z,14.40
2022-11-06T10:58:57.713Z,14.41
2022-11-06T11:01:27.442Z,14.60
2022-11-06T11:06:42.457Z,14.63
2022-11-06T11:09:35.140Z,14.78
2022-11-06T11:12:19.686Z,14.90
2022-11-06T11:15:17.675Z,14.85
2022-11-06T11:18:14.596Z,14.77
2022-11-06T11:21:04.100Z,14.70
2022-11-06T11:23:40.570Z,14.77
2022-11-06T11:26:28.536Z,14.79
2022-11-06T11:29:04.989Z,14.86
2022-11-06T11:31:35.922Z,14.77
2022-11-06T11:34:16.941Z,14.95
2022-11-06T11:36:58.386Z,15.17
2022-11-06T11:39:37.910Z,15.14
2022-11-06T11:42:34.216Z,15.07
2022-11-06T11:45:19.872Z,14.98
2022-11-06T11:47:54.338Z,14.93
2022-11-06T11:50:34.677Z,14.88
2022-11-06T11:53:18.111Z,14.72
2022-11-06T11:55:47.928Z,14.77
2022-11-06T11:58:22.343Z,14.86
2022-11-06T12:00:53.810Z,14.76
2022-11-06T12:03:29.667Z,14.70
2022-11-06T12:06:13.350Z,14.55
2022-11-06T12:08:53.589Z,14.66
2022-11-06T12:11:36.179Z,14.45
2022-11-06T12:14:28.366Z,14.53
2022-11-06T12:17:24.722Z,14.48
2022-11-06T12:19:59.257Z,14.30
2022-11-06T12:22:35.731Z,14.26
2022-11-06T12:25:31.039Z,14.31
2022-11-06T12:28:05.050Z,14.10
2022-11-06T12:30:34.054Z,14.07
2022-11-06T12:33:24.625Z,14.31
2022-11-06T12:35:59.113Z,14.29
2022-11-06T12:38:45.761Z,14.26
2022-11-06T12:41:30.115Z,13.94
2022-11-06T12:43:59.794Z,13.77
2022-11-06T12:47:01.765Z,13.87
2022-11-06T12:50:10.466Z,13.77
2022-11-06T12:53:07.716Z,13.69
2022-11-06T12:55:56.020Z,13.60
2022-11-06T12:58:46.450Z,13.52
2022-11-06T13:01:20.750Z,13.48
2022-11-06T13:04:22.171Z,13.52
2022-11-06T13:07:17.542Z,13.32
2022-11-06T13:10:04.408Z,13.10
2022-11-06T13:13:01.401Z,12.96
2022-11-06T13:15:40.731Z,12.72
2022-11-06T13:18:34.415Z,12.66
2022-11-06T13:21:18.466Z,12.44
2022-11-06T13:23:56.597Z,12.39
2022-11-06T13:26:54.078Z,12.22
2022-11-06T13:29:32.185Z,12.05
2022-11-06T13:32:10.787Z,11.93
2022-11-06T13:34:41.276Z,11.85
2022-11-06T13:37:16.519Z,11.77
2022-11-06T13:39:49.467Z,11.86
2022-11-06T13:42:31.522Z,11.69
2022-11-06T13:45:04.836Z,11.60
2022-11-06T13:48:07.100Z,11.57
2022-11-06T13:51:16.997Z,11.53
2022-11-06T13:54:21.694Z,11.52
2022-11-06T13:57:15.666Z,11.43
2022-11-06T14:00:32.636Z,11.22
2022-11-06T14:03:45.207Z,11.14
2022-11-06T14:06:23.132Z,11.06
2022-11-06T14:09:15.811Z,11.13
2022-11-06T14:11:53.785Z,11.05
2022-11-06T14:14:22.465Z,11.08
2022-11-06T14:17:27.871Z,11.04
2022-11-06T14:20:27.533Z,10.94
2022-11-06T14:23:46.241Z,11.05
2022-11-06T14:26:14.472Z,10.86
2022-11-06T14:28:47.182Z,10.72
2022-11-06T14:31:59.439Z,10.77
2022-11-06T14:34:36.166Z,10.74
2022-11-06T14:37:18.532Z,10.77
2022-11-06T14:39:58.975Z,10.69
2022-11-06T14:42:46.824Z,10.49
2022-11-06T14:45:22.778Z,10.43
2022-11-06T14:47:56.894Z,10.42
2022-11-06T14:50:41.299Z,10.25
2022-11-06T14:53:24.310Z,10.16
2022-11-06T14:56:01.755Z,9.95
2022-11-06T14:58:47.501Z,10.05
2022-11-06T15:01:16.745Z,9.98
2022-11-06T15:04:06.154Z,10.06
2022-11-06T15:06:42.144Z,10.06
2022-11-06T15:09:12.346Z,9.77
2022-11-06T15:11:47.793Z,9.99
2022-11-06T15:14:16.844Z,10.04
2022-11-06T15:17:04.602Z,9.93
2022-11-06T15:19:42.342Z,9.79
2022-11-06T15:22:23.176Z,9.75
2022-11-06T15:25:02.251Z,9.78
2022-11-06T15:28:05.036Z,9.67
2022-11-06T15:30:54.506Z,9.59
2022-11-06T15:33:34.153Z,9.78
2022-11-06T15:36:25.333Z,9.81
2022-11-06T15:38:55.378Z,9.69
2022-11-06T15:41:27.254Z,9.73
2022-11-06T15:43:57.454Z,9.74
2022-11-06T15:46:31.361Z,9.61
2022-11-06T15:49:19.200Z,9.71
2022-11-06T15:52:04.887Z,9.59
2022-11-06T15:54:44.930Z,9.52
2022-11-06T15:57:27.864Z,9.46
2022-11-06T16:00:28.434Z,9.54
2022-11-06T16:03:19.170Z,9.50
2022-11-06T16:05:47.320Z,9.32
2022-11-06T16:08:21.637Z,9.47
2022-11-06T16:10:54.554Z,9.44
2022-11-06T16:13:26.184Z,9.47
2022-11-06T16:16:01.400Z,9.47
2022-11-06T16:18:46.266Z,9.62
2022-11-06T16:21:19.106Z,9.55
2022-11-06T16:23:57.794Z,9.40
2022-11-06T16:26:39.696Z,9.53
2022-11-06T16:29:29.464Z,9.47
2022-11-06T16:32:14.767Z,9.38
2022-11-06T16:34:51.824Z,9.22
2022-11-06T16:37:19.078Z,9.38
2022-11-06T16:39:52.720Z,9.23
2022-11-06T16:42:24.609Z,9.26
2022-11-06T16:45:19.672Z,9.30
2022-11-06T16:48:08.872Z,9.24
2022-11-06T16:50:53.149Z,9.28
2022-11-06T16:53:23.356Z,9.30
2022-11-06T16:56:22.505Z,9.30
2022-11-06T16:58:58.489Z,9.27
2022-11-06T17:01:27.164Z,9.19
2022-11-06T17:04:00.399Z,9.36
2022-11-06T17:06:48.393Z,9.31
2022-11-06T17:09:34.014Z,9.45
2022-11-06T17:12:04.490Z,9.30
2022-11-06T17:14:44.006Z,9.33
2022-11-06T17:17:39.019Z,9.34
2022-11-06T17:20:19.797Z,9.25
2022-11-06T17:22:54.014Z,9.27
2022-11-06T17:25:40.508Z,9.48
2022-11-06T17:28:19.744Z,9.38
2022-11-06T17:30:49.808Z,9.50
2022-11-06T17:33:23.120Z,9.55
2022-11-06T17:35:56.726Z,9.43
2022-11-06T17:38:29.718Z,9.41
2022-11-06T17:41:01.268Z,9.50
2022-11-06T17:43:37.550Z,9.39
2022-11-06T17:46:17.004Z,9.43
2022-11-06T17:48:46.467Z,9.48
2022-11-06T17:51:36.933Z,9.60
2022-11-06T17:54:10.343Z,9.57
2022-11-06T17:57:07.043Z,9.43
2022-11-06T17:59:37.290Z,9.49
2022-11-06T18:02:29.776Z,9.65
2022-11-06T18:05:05.433Z,9.58
2022-11-06T18:07:32.600Z,9.58
2022-11-06T18:10:01.464Z,9.58
2022-11-06T18:12:35.334Z,9.51
2022-11-06T18:15:02.447Z,9.64
2022-11-06T18:17:40.716Z,9.58
2022-11-06T18:20:11.916Z,9.68
2022-11-06T18:23:07.450Z,9.67
2022-11-06T18:25:46.652Z,9.72
2022-11-06T18:28:43.451Z,9.87
2022-11-06T18:31:11.928Z,9.65
2022-11-06T18:33:52.426Z,9.67
2022-11-06T18:36:21.108Z,9.74
2022-11-06T18:38:50.652Z,9.77
2022-11-06T18:41:19.896Z,9.65
2022-11-06T18:44:00.886Z,9.69
2022-11-06T18:46:32.848Z,9.79
2022-11-06T18:49:04.719Z,9.86
2022-11-06T18:51:42.852Z,9.82
2022-11-06T18:54:13.431Z,9.95
2022-11-06T18:56:45.972Z,10.05
2022-11-06T18:59:37.250Z,10.03
2022-11-06T19:02:14.628Z,10.04
2022-11-06T19:04:49.422Z,10.15
2022-11-06T19:07:21.918Z,10.11
2022-11-06T19:09:59.161Z,10.12
2022-11-06T19:12:26.361Z,10.12
2022-11-06T19:14:55.662Z,10.21
2022-11-06T19:17:28.551Z,10.33
2022-11-06T19:19:55.393Z,10.37
2022-11-06T19:22:29.206Z,10.43
2022-11-06T19:25:10.806Z,10.42
2022-11-06T19:28:01.173Z,10.47
2022-11-06T19:30:28.311Z,10.56
2022-11-06T19:33:16.434Z,10.53
2022-11-06T19:35:48.522Z,10.60
2022-11-06T19:38:24.169Z,10.65
2022-11-06T19:40:59.190Z,10.67
2022-11-06T19:43:42.487Z,10.77
2022-11-06T19:46:24.082Z,10.77
2022-11-06T19:48:59.102Z,10.71
2022-11-06T19:51:33.454Z,10.76
2022-11-06T19:54:01.912Z,10.81
2022-11-06T19:56:28.890Z,10.83
2022-11-06T19:59:04.335Z,10.74
2022-11-06T20:01:44.477Z,10.84
2022-11-06T20:04:17.604Z,10.98
2022-11-06T20:06:50.235Z,10.97
2022-11-06T20:09:17.714Z,11.10
2022-11-06T20:11:52.093Z,11.14
2022-11-06T20:14:21.922Z,11.13
2022-11-06T20:16:49.839Z,11.08
2022-11-06T20:19:22.544Z,11.13
2022-11-06T20:21:49.574Z,11.22
2022-11-06T20:24:17.290Z,11.33
2022-11-06T20:26:49.789Z,11.21
2022-11-06T20:29:16.931Z,11.28
2022-11-06T20:31:43.983Z,11.42
2022-11-06T20:34:26.323Z,11.43
2022-11-06T20:37:00.832Z,11.45
2022-11-06T20:39:34.251Z,11.51
2022-11-06T20:42:05.261Z,11.52
2022-11-06T20:44:35.133Z,11.46
2022-11-06T20:47:31.987Z,11.44
2022-11-06T20:50:01.348Z,11.33
2022-11-06T20:52:28.533Z,11.26
2022-11-06T20:54:56.733Z,11.26
2022-11-06T20:57:24.916Z,11.33
2022-11-06T20:59:54.926Z,11.33
2022-11-06T21:02:26.741Z,11.46
2022-11-06T21:04:57.373Z,11.50
2022-11-06T21:07:26.280Z,11.53
2022-11-06T21:09:56.442Z,11.49
2022-11-06T21:12:24.284Z,11.39
2022-11-06T21:14:52.805Z,11.42
2022-11-06T21:17:24.588Z,11.44
2022-11-06T21:19:53.897Z,11.41
2022-11-06T21:22:23.697Z,11.33
2022-11-06T21:24:57.969Z,11.41
2022-11-06T21:27:28.293Z,11.30
2022-11-06T21:29:56.269Z,11.41
2022-11-06T21:32:29.698Z,11.46
2022-11-06T21:35:00.705Z,11.43
2022-11-06T21:37:40.666Z,11.44
2022-11-06T21:40:17.239Z,11.65
2022-11-06T21:42:49.192Z,11.67
2022-11-06T21:45:27.428Z,11.65
2022-11-06T21:47:54.658Z,11.79
2022-11-06T21:50:29.829Z,11.81
2022-11-06T21:53:32.337Z,11.81
2022-11-06T21:56:04.467Z,11.85
2022-11-06T21:58:33.306Z,11.74
2022-11-06T22:01:09.070Z,11.70
2022-11-06T22:03:41.063Z,11.68
2022-11-06T22:06:16.804Z,11.60
2022-11-06T22:08:45.545Z,11.76
2022-11-06T22:11:33.759Z,11.76
2022-11-06T22:14:03.921Z,11.63
2022-11-06T22:16:36.105Z,11.73
2022-11-06T22:19:08.577Z,11.74
2022-11-06T22:21:44.569Z,11.65
2022-11-06T22:24:13.221Z,11.63
2022-11-06T22:26:47.845Z,11.62
2022-11-06T22:29:20.246Z,11.81
2022-11-06T22:31:47.232Z,11.88
2022-11-06T22:34:14.479Z,11.85
2022-11-06T22:36:42.083Z,11.99
2022-11-06T22:39:10.420Z,12.09
2022-11-06T22:41:38.804Z,12.12
2022-11-06T22:44:13.679Z,12.07
2022-11-06T22:46:47.075Z,12.08
2022-11-06T22:49:19.764Z,12.04
2022-11-06T22:51:51.300Z,12.08
2022-11-06T22:54:18.791Z,12.07
2022-11-06T22:56:45.822Z,12.06
2022-11-06T22:59:14.970Z,12.07
2022-11-06T23:01:45.991Z,12.18
2022-11-06T23:04:17.626Z,12.07
2022-11-06T23:06:45.511Z,12.15
2022-11-06T23:09:13.209Z,12.21
2022-11-06T23:11:47.322Z,12.23
2022-11-06T23:14:28.077Z,12.24
2022-11-06T23:16:57.817Z,12.34
2022-11-06T23:19:28.350Z,12.14
2022-11-06T23:22:19.354Z,12.10
2022-11-06T23:24:48.756Z,12.19
2022-11-06T23:27:17.565Z,12.30
2022-11-06T23:29:47.383Z,12.35
2022-11-06T23:32:17.190Z,12.18
2022-11-06T23:34:44.204Z,12.28
2022-11-06T23:37:11.076Z,12.17
2022-11-06T23:39:40.081Z,12.11
2022-11-06T23:42:07.579Z,12.09
2022-11-06T23:44:52.996Z,12.09
2022-11-06T23:47:20.048Z,12.16
2022-11-06T23:49:47.046Z,12.14
2022-11-06T23:52:14.014Z,12.27
2022-11-06T23:54:40.831Z,12.21
2022-11-06T23:57:08.617Z,12.02
2022-11-06T23:59:35.964Z,11.87
